BAW628 LPPR-EGKK
Flight info
| Callsign | BAW628 |
|---|---|
| Flight time | 1h 49m |
| Altitude | 24000 |
| Route | TURON P600 ASDEB/N0449F360 DCT KORUL DCT FEJAC DCT JSY/N0445F340 DCT REVTU/N0438F280 UP88 ODREP/N0412F240 P88 VASUX |
| Aircraft | A320/M-SDE3FGHIRWY/LB1 |
Departure
| Time | 2026-05-06 17:07 |
|---|---|
| Airport | Francisco de Sá Carneiro Airport (LPPR) |
Arrival
| Time | 2026-05-06 18:57 |
|---|---|
| Airport | London Gatwick Airport (EGKK) |
| Time | Latitude | Longitude | Altitude | Speed | Heading |
|---|---|---|---|---|---|
| 2026-05-06 16:25 | 41.23686 | -8.67249 | 243 ft | 0 kts | 79° |
| 2026-05-06 16:36 | 41.23686 | -8.67250 | 242 ft | 0 kts | 79° |
| 2026-05-06 17:00 | 41.23682 | -8.67275 | 242 ft | 3 kts | 79° |
| 2026-05-06 17:00 | 41.23678 | -8.67305 | 242 ft | 3 kts | 79° |
| 2026-05-06 17:01 | 41.23678 | -8.67338 | 242 ft | 4 kts | 121° |
| 2026-05-06 17:01 | 41.23696 | -8.67359 | 242 ft | 2 kts | 159° |
| 2026-05-06 17:01 | 41.23702 | -8.67362 | 242 ft | 1 kts | 160° |
| 2026-05-06 17:04 | 41.23701 | -8.67361 | 242 ft | 2 kts | 160° |
| 2026-05-06 17:04 | 41.23640 | -8.67342 | 242 ft | 13 kts | 171° |
| 2026-05-06 17:04 | 41.23548 | -8.67360 | 240 ft | 16 kts | 211° |
| 2026-05-06 17:05 | 41.23432 | -8.67374 | 237 ft | 15 kts | 170° |
| 2026-05-06 17:05 | 41.23357 | -8.67379 | 239 ft | 12 kts | 206° |
| 2026-05-06 17:05 | 41.23329 | -8.67446 | 239 ft | 9 kts | 258° |
| 2026-05-06 17:05 | 41.23316 | -8.67542 | 236 ft | 11 kts | 258° |
| 2026-05-06 17:06 | 41.23298 | -8.67653 | 238 ft | 13 kts | 258° |
| 2026-05-06 17:06 | 41.23325 | -8.67737 | 240 ft | 12 kts | 343° |
| 2026-05-06 17:06 | 41.23359 | -8.67746 | 239 ft | 1 kts | 348° |
| 2026-05-06 17:06 | 41.23405 | -8.67758 | 238 ft | 19 kts | 348° |
| 2026-05-06 17:07 | 41.23790 | -8.67859 | 223 ft | 91 kts | 349° |
| 2026-05-06 17:07 | 41.24591 | -8.68070 | 214 ft | 141 kts | 348° |
| 2026-05-06 17:07 | 41.25669 | -8.68332 | 425 ft | 168 kts | 350° |
| 2026-05-06 17:07 | 41.26883 | -8.68631 | 903 ft | 185 kts | 347° |
| 2026-05-06 17:08 | 41.28190 | -8.68994 | 1442 ft | 202 kts | 347° |
| 2026-05-06 17:08 | 41.29647 | -8.69390 | 1916 ft | 226 kts | 347° |
| 2026-05-06 17:08 | 41.31255 | -8.69818 | 2553 ft | 243 kts | 348° |
| 2026-05-06 17:08 | 41.32936 | -8.70261 | 3482 ft | 248 kts | 348° |
| 2026-05-06 17:09 | 41.34655 | -8.70714 | 4381 ft | 255 kts | 348° |
| 2026-05-06 17:09 | 41.36430 | -8.71182 | 5219 ft | 264 kts | 349° |
| 2026-05-06 17:09 | 41.38251 | -8.71660 | 6071 ft | 271 kts | 349° |
| 2026-05-06 17:09 | 41.40127 | -8.72153 | 6885 ft | 277 kts | 349° |
| 2026-05-06 17:10 | 41.42052 | -8.72550 | 7686 ft | 283 kts | 358° |
| 2026-05-06 17:10 | 41.44006 | -8.72365 | 8481 ft | 288 kts | 12° |
| 2026-05-06 17:10 | 41.45982 | -8.71851 | 9345 ft | 291 kts | 12° |
| 2026-05-06 17:10 | 41.47986 | -8.71339 | 10110 ft | 298 kts | 12° |
| 2026-05-06 17:11 | 41.50097 | -8.70807 | 10402 ft | 321 kts | 12° |
| 2026-05-06 17:11 | 41.52402 | -8.70223 | 10604 ft | 344 kts | 11° |
| 2026-05-06 17:11 | 41.54779 | -8.69620 | 11056 ft | 356 kts | 11° |
| 2026-05-06 17:11 | 41.57218 | -8.69004 | 11744 ft | 359 kts | 11° |
| 2026-05-06 17:12 | 41.59688 | -8.68381 | 12470 ft | 362 kts | 10° |
| 2026-05-06 17:12 | 41.62181 | -8.67754 | 13198 ft | 365 kts | 10° |
| 2026-05-06 17:12 | 41.64687 | -8.67122 | 13923 ft | 368 kts | 9° |
| 2026-05-06 17:12 | 41.67215 | -8.66482 | 14547 ft | 371 kts | 10° |
| 2026-05-06 17:13 | 41.69758 | -8.65835 | 15155 ft | 374 kts | 10° |
| 2026-05-06 17:13 | 41.72328 | -8.65179 | 15724 ft | 378 kts | 10° |
| 2026-05-06 17:13 | 41.74931 | -8.64517 | 16267 ft | 382 kts | 10° |
| 2026-05-06 17:13 | 41.77558 | -8.63845 | 16822 ft | 386 kts | 10° |
| 2026-05-06 17:14 | 41.80212 | -8.63165 | 17382 ft | 391 kts | 10° |
| 2026-05-06 17:14 | 41.81988 | -8.62709 | 17774 ft | 393 kts | 10° |
| 2026-05-06 17:14 | 41.84688 | -8.62018 | 18340 ft | 397 kts | 10° |
| 2026-05-06 17:14 | 41.87428 | -8.61318 | 18824 ft | 402 kts | 10° |
| 2026-05-06 17:15 | 41.90182 | -8.60613 | 19382 ft | 405 kts | 9° |
| 2026-05-06 17:15 | 41.92962 | -8.59900 | 19891 ft | 408 kts | 9° |
| 2026-05-06 17:15 | 41.95763 | -8.59180 | 20450 ft | 411 kts | 10° |
| 2026-05-06 17:15 | 41.98583 | -8.58454 | 20944 ft | 414 kts | 9° |
| 2026-05-06 17:16 | 42.01422 | -8.57725 | 21449 ft | 416 kts | 9° |
| 2026-05-06 17:16 | 42.04281 | -8.56991 | 21886 ft | 420 kts | 10° |
| 2026-05-06 17:16 | 42.07171 | -8.56257 | 22374 ft | 423 kts | 9° |
| 2026-05-06 17:16 | 42.10088 | -8.55643 | 22850 ft | 425 kts | 6° |
| 2026-05-06 17:17 | 42.12995 | -8.55158 | 23335 ft | 427 kts | 5° |
| 2026-05-06 17:17 | 42.15997 | -8.54732 | 23776 ft | 430 kts | 4° |
| 2026-05-06 17:17 | 42.18941 | -8.54340 | 23961 ft | 431 kts | 5° |
| 2026-05-06 17:17 | 42.21922 | -8.53931 | 23999 ft | 431 kts | 5° |
| 2026-05-06 17:18 | 42.24908 | -8.53494 | 24004 ft | 431 kts | 5° |
| 2026-05-06 17:18 | 42.27892 | -8.53029 | 24006 ft | 431 kts | 6° |
| 2026-05-06 17:18 | 42.30871 | -8.52546 | 24006 ft | 432 kts | 6° |
| 2026-05-06 17:18 | 42.33850 | -8.52058 | 24003 ft | 431 kts | 5° |
| 2026-05-06 17:19 | 42.36832 | -8.51572 | 24003 ft | 432 kts | 5° |
| 2026-05-06 17:19 | 42.39814 | -8.51088 | 23993 ft | 431 kts | 6° |
| 2026-05-06 17:19 | 42.42793 | -8.50606 | 23999 ft | 431 kts | 5° |
| 2026-05-06 17:19 | 42.45775 | -8.50125 | 23993 ft | 431 kts | 5° |
| 2026-05-06 17:20 | 42.48760 | -8.49640 | 24263 ft | 435 kts | 6° |
| 2026-05-06 17:20 | 42.51730 | -8.48773 | 24658 ft | 439 kts | 16° |
| 2026-05-06 17:20 | 42.54582 | -8.47265 | 25063 ft | 441 kts | 25° |
| 2026-05-06 17:20 | 42.57326 | -8.45468 | 25419 ft | 444 kts | 25° |
| 2026-05-06 17:21 | 42.60119 | -8.43643 | 25801 ft | 446 kts | 25° |
| 2026-05-06 17:21 | 42.62929 | -8.41808 | 26157 ft | 449 kts | 25° |
| 2026-05-06 17:21 | 42.65759 | -8.39964 | 26543 ft | 452 kts | 25° |
| 2026-05-06 17:21 | 42.68598 | -8.38115 | 26917 ft | 454 kts | 25° |
| 2026-05-06 17:22 | 42.71456 | -8.36253 | 27327 ft | 457 kts | 25° |
| 2026-05-06 17:22 | 42.74325 | -8.34381 | 27706 ft | 458 kts | 25° |
| 2026-05-06 17:22 | 42.77169 | -8.32523 | 28069 ft | 460 kts | 24° |
| 2026-05-06 17:22 | 42.80058 | -8.30630 | 28451 ft | 462 kts | 25° |
| 2026-05-06 17:23 | 42.82968 | -8.28720 | 28789 ft | 465 kts | 25° |
| 2026-05-06 17:23 | 42.85886 | -8.26801 | 29165 ft | 467 kts | 25° |
| 2026-05-06 17:23 | 42.88807 | -8.24877 | 29676 ft | 466 kts | 25° |
| 2026-05-06 17:23 | 42.91717 | -8.22958 | 30176 ft | 464 kts | 25° |
| 2026-05-06 17:24 | 42.94627 | -8.21039 | 30623 ft | 464 kts | 25° |
| 2026-05-06 17:24 | 42.97534 | -8.19120 | 31071 ft | 463 kts | 25° |
| 2026-05-06 17:24 | 43.00426 | -8.17206 | 31521 ft | 462 kts | 25° |
| 2026-05-06 17:24 | 43.03318 | -8.15290 | 31958 ft | 461 kts | 25° |
| 2026-05-06 17:25 | 43.06205 | -8.13373 | 32395 ft | 461 kts | 25° |
| 2026-05-06 17:25 | 43.09088 | -8.11461 | 32843 ft | 461 kts | 24° |
| 2026-05-06 17:25 | 43.11971 | -8.09553 | 33285 ft | 460 kts | 24° |
| 2026-05-06 17:25 | 43.14855 | -8.07644 | 33733 ft | 460 kts | 25° |
| 2026-05-06 17:26 | 43.17722 | -8.05741 | 34203 ft | 457 kts | 25° |
| 2026-05-06 17:26 | 43.20590 | -8.03836 | 34608 ft | 456 kts | 25° |
| 2026-05-06 17:26 | 43.23440 | -8.01941 | 34975 ft | 455 kts | 24° |
| 2026-05-06 17:26 | 43.26291 | -8.00041 | 35329 ft | 455 kts | 25° |
| 2026-05-06 17:27 | 43.29136 | -7.98138 | 35665 ft | 455 kts | 24° |
| 2026-05-06 17:27 | 43.31983 | -7.96236 | 35933 ft | 456 kts | 24° |
| 2026-05-06 17:27 | 43.34839 | -7.94326 | 36012 ft | 458 kts | 24° |
| 2026-05-06 17:28 | 43.40597 | -7.90469 | 36016 ft | 460 kts | 25° |
| 2026-05-06 17:28 | 43.46354 | -7.86602 | 36008 ft | 460 kts | 25° |
| 2026-05-06 17:29 | 43.52095 | -7.82733 | 36016 ft | 459 kts | 25° |
| 2026-05-06 17:29 | 43.57836 | -7.78863 | 36023 ft | 459 kts | 25° |
| 2026-05-06 17:30 | 43.63570 | -7.74988 | 36022 ft | 459 kts | 25° |
| 2026-05-06 17:30 | 43.69307 | -7.71113 | 36027 ft | 459 kts | 25° |
| 2026-05-06 17:31 | 43.75006 | -7.67253 | 36029 ft | 459 kts | 25° |
| 2026-05-06 17:31 | 43.80730 | -7.63353 | 36035 ft | 459 kts | 25° |
| 2026-05-06 17:32 | 43.86463 | -7.59439 | 36030 ft | 459 kts | 25° |
| 2026-05-06 17:32 | 43.92185 | -7.55535 | 36032 ft | 458 kts | 25° |
| 2026-05-06 17:33 | 43.97906 | -7.51624 | 36037 ft | 458 kts | 25° |
| 2026-05-06 17:33 | 44.03619 | -7.47696 | 36036 ft | 457 kts | 25° |
| 2026-05-06 17:34 | 44.09321 | -7.43777 | 36035 ft | 457 kts | 25° |
| 2026-05-06 17:34 | 44.15019 | -7.39850 | 36032 ft | 457 kts | 25° |
| 2026-05-06 17:35 | 44.20681 | -7.35945 | 36036 ft | 457 kts | 25° |
| 2026-05-06 17:35 | 44.26375 | -7.32006 | 36032 ft | 456 kts | 25° |
| 2026-05-06 17:36 | 44.34899 | -7.26089 | 36029 ft | 456 kts | 25° |
| 2026-05-06 17:36 | 44.40578 | -7.22136 | 36030 ft | 456 kts | 25° |
| 2026-05-06 17:37 | 44.46264 | -7.18180 | 36031 ft | 456 kts | 25° |
| 2026-05-06 17:37 | 44.51938 | -7.14222 | 36029 ft | 456 kts | 25° |
| 2026-05-06 17:38 | 44.57587 | -7.10270 | 36023 ft | 456 kts | 25° |
| 2026-05-06 17:38 | 44.63267 | -7.06290 | 36025 ft | 456 kts | 25° |
| 2026-05-06 17:39 | 44.68943 | -7.02290 | 36025 ft | 456 kts | 25° |
| 2026-05-06 17:39 | 44.74626 | -6.98278 | 36029 ft | 456 kts | 25° |
| 2026-05-06 17:40 | 44.80301 | -6.94259 | 36034 ft | 457 kts | 25° |
| 2026-05-06 17:40 | 44.85774 | -6.89718 | 36034 ft | 458 kts | 34° |
| 2026-05-06 17:41 | 44.90924 | -6.84519 | 36026 ft | 458 kts | 34° |
| 2026-05-06 17:41 | 44.96098 | -6.79297 | 36026 ft | 458 kts | 34° |
| 2026-05-06 17:42 | 45.01286 | -6.74050 | 36040 ft | 458 kts | 34° |
| 2026-05-06 17:42 | 45.06441 | -6.68826 | 36042 ft | 458 kts | 34° |
| 2026-05-06 17:43 | 45.11612 | -6.63562 | 36040 ft | 458 kts | 34° |
| 2026-05-06 17:43 | 45.16771 | -6.58286 | 36035 ft | 458 kts | 34° |
| 2026-05-06 17:44 | 45.21935 | -6.53008 | 36037 ft | 457 kts | 34° |
| 2026-05-06 17:44 | 45.27093 | -6.47729 | 36036 ft | 457 kts | 34° |
| 2026-05-06 17:45 | 45.32250 | -6.42444 | 36031 ft | 457 kts | 34° |
| 2026-05-06 17:45 | 45.37393 | -6.37154 | 36034 ft | 456 kts | 34° |
| 2026-05-06 17:46 | 45.42543 | -6.31849 | 36036 ft | 456 kts | 34° |
| 2026-05-06 17:46 | 45.47686 | -6.26538 | 36036 ft | 456 kts | 34° |
| 2026-05-06 17:47 | 45.52784 | -6.21251 | 36035 ft | 456 kts | 35° |
| 2026-05-06 17:47 | 45.57915 | -6.15904 | 36033 ft | 456 kts | 35° |
| 2026-05-06 17:48 | 45.63045 | -6.10564 | 36040 ft | 457 kts | 35° |
| 2026-05-06 17:48 | 45.68182 | -6.05215 | 36038 ft | 457 kts | 35° |
| 2026-05-06 17:49 | 45.73313 | -5.99854 | 36039 ft | 457 kts | 35° |
| 2026-05-06 17:49 | 45.78439 | -5.94476 | 36035 ft | 457 kts | 35° |
| 2026-05-06 17:50 | 45.83563 | -5.89089 | 36040 ft | 457 kts | 35° |
| 2026-05-06 17:50 | 45.88650 | -5.83736 | 36039 ft | 456 kts | 35° |
| 2026-05-06 17:51 | 45.93770 | -5.78340 | 36039 ft | 456 kts | 35° |
| 2026-05-06 17:51 | 45.98882 | -5.72932 | 36035 ft | 456 kts | 35° |
| 2026-05-06 17:52 | 46.03994 | -5.67519 | 36036 ft | 456 kts | 35° |
| 2026-05-06 17:52 | 46.09099 | -5.62084 | 36031 ft | 456 kts | 35° |
| 2026-05-06 17:53 | 46.14193 | -5.56647 | 36030 ft | 455 kts | 35° |
| 2026-05-06 17:53 | 46.19253 | -5.51243 | 36028 ft | 455 kts | 35° |
| 2026-05-06 17:54 | 46.24342 | -5.45798 | 36035 ft | 455 kts | 35° |
| 2026-05-06 17:54 | 46.29425 | -5.40344 | 36024 ft | 455 kts | 35° |
| 2026-05-06 17:55 | 46.34506 | -5.34883 | 36025 ft | 455 kts | 35° |
| 2026-05-06 17:55 | 46.39582 | -5.29417 | 36022 ft | 455 kts | 35° |
| 2026-05-06 17:56 | 46.44656 | -5.23935 | 36025 ft | 455 kts | 35° |
| 2026-05-06 17:56 | 46.49685 | -5.18485 | 36026 ft | 454 kts | 35° |
| 2026-05-06 17:57 | 46.54752 | -5.12992 | 36023 ft | 454 kts | 35° |
| 2026-05-06 17:57 | 46.59804 | -5.07487 | 36020 ft | 454 kts | 35° |
| 2026-05-06 17:58 | 46.64857 | -5.01970 | 36017 ft | 454 kts | 35° |
| 2026-05-06 17:58 | 46.69904 | -4.96444 | 36013 ft | 454 kts | 36° |
| 2026-05-06 17:59 | 46.74952 | -4.90907 | 36009 ft | 454 kts | 36° |
| 2026-05-06 17:59 | 46.80001 | -4.85376 | 36012 ft | 454 kts | 35° |
| 2026-05-06 18:00 | 46.85034 | -4.79838 | 36007 ft | 454 kts | 36° |
| 2026-05-06 18:00 | 46.90038 | -4.74300 | 36011 ft | 453 kts | 35° |
| 2026-05-06 18:01 | 46.95102 | -4.68694 | 36008 ft | 453 kts | 35° |
| 2026-05-06 18:01 | 47.00099 | -4.63154 | 36008 ft | 453 kts | 36° |
| 2026-05-06 18:02 | 47.05127 | -4.57567 | 36003 ft | 453 kts | 36° |
| 2026-05-06 18:02 | 47.10151 | -4.51965 | 36007 ft | 454 kts | 36° |
| 2026-05-06 18:03 | 47.15175 | -4.46356 | 36008 ft | 454 kts | 36° |
| 2026-05-06 18:03 | 47.20205 | -4.40722 | 36006 ft | 454 kts | 36° |
| 2026-05-06 18:04 | 47.25203 | -4.35102 | 36003 ft | 454 kts | 36° |
| 2026-05-06 18:04 | 47.30218 | -4.29451 | 36005 ft | 454 kts | 36° |
| 2026-05-06 18:05 | 47.35203 | -4.23821 | 36006 ft | 454 kts | 35° |
| 2026-05-06 18:05 | 47.40214 | -4.18162 | 36012 ft | 454 kts | 36° |
| 2026-05-06 18:06 | 47.45229 | -4.12477 | 36009 ft | 454 kts | 36° |
| 2026-05-06 18:06 | 47.50229 | -4.06780 | 36009 ft | 454 kts | 36° |
| 2026-05-06 18:07 | 47.54378 | -4.02040 | 36016 ft | 454 kts | 36° |
| 2026-05-06 18:07 | 47.59379 | -3.96342 | 36006 ft | 453 kts | 36° |
| 2026-05-06 18:08 | 47.64375 | -3.90632 | 36004 ft | 454 kts | 36° |
| 2026-05-06 18:08 | 47.69366 | -3.84901 | 36006 ft | 454 kts | 36° |
| 2026-05-06 18:09 | 47.74353 | -3.79163 | 36009 ft | 453 kts | 36° |
| 2026-05-06 18:09 | 47.79330 | -3.73424 | 36000 ft | 453 kts | 36° |
| 2026-05-06 18:10 | 47.84306 | -3.67662 | 35999 ft | 453 kts | 36° |
| 2026-05-06 18:10 | 47.89285 | -3.61887 | 35996 ft | 453 kts | 36° |
| 2026-05-06 18:11 | 47.94256 | -3.56110 | 35999 ft | 453 kts | 36° |
| 2026-05-06 18:11 | 47.99225 | -3.50325 | 35994 ft | 453 kts | 36° |
| 2026-05-06 18:12 | 48.04189 | -3.44534 | 35993 ft | 452 kts | 36° |
| 2026-05-06 18:12 | 48.09146 | -3.38735 | 35994 ft | 452 kts | 37° |
| 2026-05-06 18:13 | 48.14096 | -3.32915 | 35992 ft | 453 kts | 37° |
| 2026-05-06 18:13 | 48.19043 | -3.27080 | 36000 ft | 453 kts | 37° |
| 2026-05-06 18:14 | 48.24004 | -3.21229 | 35992 ft | 453 kts | 37° |
| 2026-05-06 18:14 | 48.28952 | -3.15387 | 35993 ft | 453 kts | 37° |
| 2026-05-06 18:15 | 48.33901 | -3.09521 | 35994 ft | 453 kts | 37° |
| 2026-05-06 18:15 | 48.38803 | -3.03696 | 35996 ft | 453 kts | 37° |
| 2026-05-06 18:16 | 48.43749 | -2.97804 | 36004 ft | 453 kts | 37° |
| 2026-05-06 18:16 | 48.48682 | -2.91901 | 35999 ft | 453 kts | 37° |
| 2026-05-06 18:17 | 48.53611 | -2.85999 | 36013 ft | 452 kts | 37° |
| 2026-05-06 18:17 | 48.58538 | -2.80092 | 35993 ft | 452 kts | 37° |
| 2026-05-06 18:18 | 48.63426 | -2.74202 | 35998 ft | 452 kts | 37° |
| 2026-05-06 18:18 | 48.68353 | -2.68255 | 35996 ft | 453 kts | 37° |
| 2026-05-06 18:19 | 48.73271 | -2.62307 | 35999 ft | 453 kts | 37° |
| 2026-05-06 18:19 | 48.78195 | -2.56328 | 36000 ft | 453 kts | 37° |
| 2026-05-06 18:20 | 48.83162 | -2.50451 | 36003 ft | 453 kts | 36° |
| 2026-05-06 18:20 | 48.88183 | -2.44665 | 36003 ft | 452 kts | 36° |
| 2026-05-06 18:21 | 48.93188 | -2.38856 | 36010 ft | 453 kts | 36° |
| 2026-05-06 18:21 | 48.98161 | -2.32999 | 36012 ft | 452 kts | 36° |
| 2026-05-06 18:22 | 49.03149 | -2.27100 | 36014 ft | 452 kts | 36° |
| 2026-05-06 18:22 | 49.08090 | -2.21248 | 36021 ft | 453 kts | 36° |
| 2026-05-06 18:23 | 49.13073 | -2.15368 | 36019 ft | 453 kts | 36° |
| 2026-05-06 18:23 | 49.18044 | -2.09467 | 36017 ft | 453 kts | 36° |
| 2026-05-06 18:24 | 49.23112 | -2.03781 | 36011 ft | 451 kts | 28° |
| 2026-05-06 18:24 | 49.28599 | -1.99140 | 36010 ft | 451 kts | 27° |
| 2026-05-06 18:25 | 49.34093 | -1.94483 | 36010 ft | 451 kts | 27° |
| 2026-05-06 18:25 | 49.39578 | -1.89806 | 36010 ft | 451 kts | 27° |
| 2026-05-06 18:26 | 49.45069 | -1.85126 | 36014 ft | 451 kts | 27° |
| 2026-05-06 18:26 | 49.50563 | -1.80440 | 36016 ft | 451 kts | 27° |
| 2026-05-06 18:27 | 49.56049 | -1.75733 | 36018 ft | 452 kts | 27° |
| 2026-05-06 18:27 | 49.61677 | -1.71478 | 36013 ft | 449 kts | 18° |
| 2026-05-06 18:28 | 49.64626 | -1.69857 | 35843 ft | 450 kts | 18° |
| 2026-05-06 18:28 | 49.67576 | -1.68236 | 35559 ft | 449 kts | 18° |
| 2026-05-06 18:28 | 49.70518 | -1.66618 | 35009 ft | 448 kts | 18° |
| 2026-05-06 18:28 | 49.73450 | -1.65002 | 34439 ft | 447 kts | 18° |
| 2026-05-06 18:29 | 49.76372 | -1.63386 | 33929 ft | 446 kts | 18° |
| 2026-05-06 18:29 | 49.79272 | -1.61777 | 34004 ft | 442 kts | 18° |
| 2026-05-06 18:29 | 49.85099 | -1.58533 | 34001 ft | 447 kts | 18° |
| 2026-05-06 18:30 | 49.90960 | -1.55280 | 34002 ft | 447 kts | 18° |
| 2026-05-06 18:30 | 49.96781 | -1.52029 | 33791 ft | 447 kts | 18° |
| 2026-05-06 18:31 | 49.99740 | -1.50369 | 32544 ft | 458 kts | 18° |
| 2026-05-06 18:31 | 50.02776 | -1.48735 | 31521 ft | 463 kts | 17° |
| 2026-05-06 18:31 | 50.05808 | -1.47214 | 30635 ft | 453 kts | 16° |
| 2026-05-06 18:31 | 50.08801 | -1.45783 | 29529 ft | 447 kts | 15° |
| 2026-05-06 18:32 | 50.11674 | -1.43990 | 28227 ft | 445 kts | 28° |
| 2026-05-06 18:32 | 50.14312 | -1.41495 | 27100 ft | 445 kts | 30° |
| 2026-05-06 18:32 | 50.16924 | -1.38964 | 26468 ft | 441 kts | 31° |
| 2026-05-06 18:32 | 50.19515 | -1.36434 | 25817 ft | 438 kts | 31° |
| 2026-05-06 18:33 | 50.22098 | -1.33907 | 25169 ft | 435 kts | 31° |
| 2026-05-06 18:33 | 50.24655 | -1.31405 | 24522 ft | 433 kts | 31° |
| 2026-05-06 18:33 | 50.27191 | -1.28924 | 23877 ft | 430 kts | 31° |
| 2026-05-06 18:33 | 50.29723 | -1.26446 | 23191 ft | 428 kts | 31° |
| 2026-05-06 18:34 | 50.32242 | -1.23975 | 22550 ft | 423 kts | 31° |
| 2026-05-06 18:34 | 50.34725 | -1.21538 | 21922 ft | 419 kts | 31° |
| 2026-05-06 18:34 | 50.37177 | -1.19131 | 21327 ft | 414 kts | 31° |
| 2026-05-06 18:34 | 50.39611 | -1.16743 | 20733 ft | 411 kts | 31° |
| 2026-05-06 18:35 | 50.41985 | -1.14413 | 20180 ft | 407 kts | 31° |
| 2026-05-06 18:35 | 50.44376 | -1.12061 | 19634 ft | 404 kts | 31° |
| 2026-05-06 18:35 | 50.46742 | -1.09729 | 19097 ft | 401 kts | 31° |
| 2026-05-06 18:35 | 50.49103 | -1.07401 | 18569 ft | 398 kts | 31° |
| 2026-05-06 18:36 | 50.51435 | -1.05096 | 18008 ft | 395 kts | 31° |
| 2026-05-06 18:36 | 50.53748 | -1.02804 | 17467 ft | 391 kts | 31° |
| 2026-05-06 18:36 | 50.56031 | -1.00537 | 16944 ft | 386 kts | 31° |
| 2026-05-06 18:36 | 50.58285 | -0.98297 | 16404 ft | 382 kts | 31° |
| 2026-05-06 18:37 | 50.60523 | -0.96075 | 15867 ft | 377 kts | 31° |
| 2026-05-06 18:37 | 50.61990 | -0.94616 | 15499 ft | 375 kts | 31° |
| 2026-05-06 18:37 | 50.64919 | -0.91705 | 14767 ft | 371 kts | 31° |
| 2026-05-06 18:37 | 50.67096 | -0.89538 | 14189 ft | 369 kts | 31° |
| 2026-05-06 18:38 | 50.69260 | -0.87376 | 13757 ft | 363 kts | 31° |
| 2026-05-06 18:38 | 50.71346 | -0.85284 | 13620 ft | 348 kts | 31° |
| 2026-05-06 18:38 | 50.73348 | -0.83273 | 13482 ft | 335 kts | 31° |
| 2026-05-06 18:38 | 50.75274 | -0.81341 | 13345 ft | 323 kts | 31° |
| 2026-05-06 18:39 | 50.77144 | -0.79464 | 13211 ft | 313 kts | 31° |
| 2026-05-06 18:39 | 50.78931 | -0.77592 | 13066 ft | 305 kts | 37° |
| 2026-05-06 18:39 | 50.80386 | -0.75189 | 12989 ft | 304 kts | 53° |
| 2026-05-06 18:40 | 50.81880 | -0.68942 | 12999 ft | 308 kts | 78° |
| 2026-05-06 18:40 | 50.82267 | -0.65604 | 13001 ft | 309 kts | 78° |
| 2026-05-06 18:40 | 50.82649 | -0.62310 | 12997 ft | 309 kts | 78° |
| 2026-05-06 18:40 | 50.83037 | -0.58977 | 12729 ft | 309 kts | 78° |
| 2026-05-06 18:41 | 50.83426 | -0.55626 | 12324 ft | 310 kts | 78° |
| 2026-05-06 18:41 | 50.83814 | -0.52286 | 11969 ft | 308 kts | 78° |
| 2026-05-06 18:41 | 50.84197 | -0.48960 | 11629 ft | 306 kts | 78° |
| 2026-05-06 18:41 | 50.84577 | -0.45659 | 11300 ft | 304 kts | 78° |
| 2026-05-06 18:42 | 50.84954 | -0.42379 | 10957 ft | 302 kts | 78° |
| 2026-05-06 18:42 | 50.85328 | -0.39125 | 10642 ft | 299 kts | 78° |
| 2026-05-06 18:42 | 50.85698 | -0.35904 | 10075 ft | 295 kts | 78° |
| 2026-05-06 18:42 | 50.86062 | -0.32726 | 9459 ft | 293 kts | 78° |
| 2026-05-06 18:43 | 50.86423 | -0.29555 | 8960 ft | 292 kts | 78° |
| 2026-05-06 18:43 | 50.86778 | -0.26404 | 8636 ft | 290 kts | 78° |
| 2026-05-06 18:43 | 50.87130 | -0.23266 | 8304 ft | 288 kts | 78° |
| 2026-05-06 18:43 | 50.87479 | -0.20152 | 7972 ft | 287 kts | 78° |
| 2026-05-06 18:44 | 50.87823 | -0.17061 | 7705 ft | 283 kts | 78° |
| 2026-05-06 18:44 | 50.88158 | -0.14036 | 7572 ft | 273 kts | 78° |
| 2026-05-06 18:44 | 50.88474 | -0.11174 | 7410 ft | 256 kts | 77° |
| 2026-05-06 18:44 | 50.88870 | -0.08464 | 7083 ft | 250 kts | 63° |
| 2026-05-06 18:45 | 50.89942 | -0.06449 | 6991 ft | 235 kts | 30° |
| 2026-05-06 18:45 | 50.91465 | -0.05636 | 6999 ft | 232 kts | 359° |
| 2026-05-06 18:45 | 50.93016 | -0.06173 | 6993 ft | 230 kts | 330° |
| 2026-05-06 18:45 | 50.93847 | -0.07196 | 6995 ft | 231 kts | 310° |
| 2026-05-06 18:46 | 50.95028 | -0.10079 | 6999 ft | 234 kts | 302° |
| 2026-05-06 18:46 | 50.95772 | -0.12386 | 6999 ft | 236 kts | 293° |
| 2026-05-06 18:46 | 50.96357 | -0.14776 | 6998 ft | 236 kts | 291° |
| 2026-05-06 18:46 | 50.96923 | -0.17211 | 7001 ft | 235 kts | 291° |
| 2026-05-06 18:47 | 50.97477 | -0.19631 | 7004 ft | 233 kts | 291° |
| 2026-05-06 18:47 | 50.98031 | -0.22071 | 6999 ft | 235 kts | 291° |
| 2026-05-06 18:47 | 50.98589 | -0.24510 | 6998 ft | 235 kts | 291° |
| 2026-05-06 18:47 | 50.99145 | -0.26952 | 7004 ft | 234 kts | 291° |
| 2026-05-06 18:48 | 50.99692 | -0.29381 | 6989 ft | 233 kts | 291° |
| 2026-05-06 18:48 | 51.00236 | -0.31804 | 6730 ft | 232 kts | 291° |
| 2026-05-06 18:48 | 51.00771 | -0.34212 | 6466 ft | 231 kts | 291° |
| 2026-05-06 18:48 | 51.01306 | -0.36608 | 6169 ft | 230 kts | 291° |
| 2026-05-06 18:49 | 51.01835 | -0.38994 | 5874 ft | 229 kts | 291° |
| 2026-05-06 18:49 | 51.02363 | -0.41365 | 5595 ft | 227 kts | 291° |
| 2026-05-06 18:49 | 51.02883 | -0.43701 | 5452 ft | 220 kts | 291° |
| 2026-05-06 18:49 | 51.03377 | -0.45953 | 5317 ft | 212 kts | 291° |
| 2026-05-06 18:50 | 51.03853 | -0.48132 | 5150 ft | 207 kts | 291° |
| 2026-05-06 18:50 | 51.04324 | -0.50282 | 4890 ft | 205 kts | 291° |
| 2026-05-06 18:50 | 51.04807 | -0.52368 | 4620 ft | 197 kts | 300° |
| 2026-05-06 18:50 | 51.05737 | -0.53809 | 4362 ft | 186 kts | 336° |
| 2026-05-06 18:51 | 51.06931 | -0.54464 | 4135 ft | 184 kts | 345° |
| 2026-05-06 18:51 | 51.08185 | -0.54618 | 3864 ft | 182 kts | 13° |
| 2026-05-06 18:51 | 51.09322 | -0.53729 | 3615 ft | 184 kts | 37° |
| 2026-05-06 18:51 | 51.10111 | -0.52151 | 3402 ft | 184 kts | 62° |
| 2026-05-06 18:52 | 51.10463 | -0.50185 | 3202 ft | 186 kts | 75° |
| 2026-05-06 18:52 | 51.10744 | -0.48188 | 3054 ft | 185 kts | 75° |
| 2026-05-06 18:52 | 51.11025 | -0.46191 | 3006 ft | 184 kts | 75° |
| 2026-05-06 18:52 | 51.11305 | -0.44199 | 3007 ft | 181 kts | 73° |
| 2026-05-06 18:53 | 51.11567 | -0.42324 | 2932 ft | 169 kts | 73° |
| 2026-05-06 18:53 | 51.11817 | -0.40545 | 2755 ft | 165 kts | 75° |
| 2026-05-06 18:53 | 51.12067 | -0.38768 | 2550 ft | 163 kts | 75° |
| 2026-05-06 18:53 | 51.12313 | -0.37010 | 2334 ft | 163 kts | 75° |
| 2026-05-06 18:54 | 51.12557 | -0.35263 | 2112 ft | 161 kts | 73° |
| 2026-05-06 18:54 | 51.12802 | -0.33515 | 1891 ft | 161 kts | 73° |
| 2026-05-06 18:54 | 51.13038 | -0.31819 | 1671 ft | 152 kts | 74° |
| 2026-05-06 18:54 | 51.13263 | -0.30200 | 1467 ft | 147 kts | 74° |
| 2026-05-06 18:55 | 51.13481 | -0.28640 | 1280 ft | 143 kts | 73° |
| 2026-05-06 18:55 | 51.13623 | -0.27616 | 1134 ft | 143 kts | 74° |
| 2026-05-06 18:55 | 51.13896 | -0.25657 | 886 ft | 141 kts | 75° |
| 2026-05-06 18:55 | 51.14104 | -0.24135 | 668 ft | 142 kts | 76° |
| 2026-05-06 18:56 | 51.14328 | -0.22629 | 500 ft | 140 kts | 76° |
| 2026-05-06 18:56 | 51.14530 | -0.21121 | 296 ft | 139 kts | 78° |
| 2026-05-06 18:56 | 51.14728 | -0.19653 | 217 ft | 123 kts | 76° |
| 2026-05-06 18:56 | 51.14878 | -0.18580 | 209 ft | 78 kts | 78° |
| 2026-05-06 18:57 | 51.14976 | -0.17990 | 213 ft | 45 kts | 64° |
| 2026-05-06 18:57 | 51.15095 | -0.17767 | 206 ft | 13 kts | 16° |
| 2026-05-06 18:57 | 51.15166 | -0.17770 | 205 ft | 0 kts | 354° |
| 2026-05-06 18:59 | 51.15169 | -0.17770 | 210 ft | 2 kts | 354° |
| 2026-05-06 18:59 | 51.15190 | -0.17774 | 205 ft | 4 kts | 353° |
| 2026-05-06 18:59 | 51.15232 | -0.17778 | 205 ft | 8 kts | 4° |
| 2026-05-06 18:59 | 51.15269 | -0.17725 | 207 ft | 9 kts | 81° |
| 2026-05-06 19:00 | 51.15282 | -0.17613 | 205 ft | 12 kts | 78° |
| 2026-05-06 19:00 | 51.15298 | -0.17469 | 207 ft | 14 kts | 81° |
| 2026-05-06 19:00 | 51.15322 | -0.17382 | 217 ft | 9 kts | 28° |
| 2026-05-06 19:00 | 51.15369 | -0.17293 | 209 ft | 12 kts | 70° |
| 2026-05-06 19:01 | 51.15400 | -0.17151 | 205 ft | 15 kts | 66° |
| 2026-05-06 19:01 | 51.15428 | -0.16978 | 205 ft | 17 kts | 78° |
| 2026-05-06 19:01 | 51.15451 | -0.16792 | 212 ft | 12 kts | 88° |
| 2026-05-06 19:01 | 51.15455 | -0.16666 | 211 ft | 7 kts | 60° |
| 2026-05-06 19:02 | 51.15499 | -0.16652 | 205 ft | 5 kts | 349° |
| 2026-05-06 19:02 | 51.15516 | -0.16658 | 209 ft | 3 kts | 347° |
| 2026-05-06 19:02 | 51.15524 | -0.16661 | 205 ft | 0 kts | 347° |